createdAt,value
2022-11-30T00:00:01.555Z,102.38
2022-11-30T00:05:01.742Z,102.46
2022-11-30T00:10:01.810Z,102.46
2022-11-30T00:15:01.637Z,102.33
2022-11-30T00:20:01.714Z,102.26
2022-11-30T00:25:01.826Z,102.29
2022-11-30T00:30:01.913Z,102.32
2022-11-30T00:35:01.859Z,102.2
2022-11-30T00:40:01.722Z,102.11
2022-11-30T00:45:01.604Z,102.15
2022-11-30T00:50:01.884Z,102.16
2022-11-30T00:55:04.191Z,102.12
2022-11-30T01:00:01.613Z,102.14
2022-11-30T01:05:01.998Z,102.33
2022-11-30T01:10:01.339Z,102.3
2022-11-30T01:15:01.795Z,102.43
2022-11-30T01:20:02.106Z,102.39
2022-11-30T01:25:01.754Z,102.38
2022-11-30T01:30:02.133Z,102.29
2022-11-30T01:35:01.945Z,102.34
2022-11-30T01:40:01.261Z,102.31
2022-11-30T01:45:01.341Z,102.32
2022-11-30T01:50:01.799Z,102.34
2022-11-30T01:55:01.915Z,102.34
2022-11-30T02:00:01.994Z,102.43
2022-11-30T02:05:01.650Z,102.43
2022-11-30T02:10:02.068Z,102.22
2022-11-30T02:15:02.058Z,102.39
2022-11-30T02:20:02.163Z,102.35
2022-11-30T02:25:01.837Z,102.33
2022-11-30T02:30:02.084Z,102.4
2022-11-30T02:35:02.039Z,102.31
2022-11-30T02:40:01.985Z,102.24
2022-11-30T02:45:01.416Z,102.23
2022-11-30T02:50:01.882Z,102.36
2022-11-30T02:55:01.878Z,102.43
2022-11-30T03:00:01.845Z,102.41
2022-11-30T03:05:01.780Z,102.36
2022-11-30T03:10:01.890Z,102.43
2022-11-30T03:15:02.183Z,102.48
2022-11-30T03:20:02.147Z,102.65
2022-11-30T03:25:01.948Z,102.6
2022-11-30T03:30:02.051Z,102.65
2022-11-30T03:35:02.067Z,102.69
2022-11-30T03:40:01.984Z,102.7
2022-11-30T03:45:02.108Z,102.58
2022-11-30T03:50:01.351Z,102.62
2022-11-30T03:55:02.111Z,102.59
2022-11-30T04:00:02.065Z,102.65
2022-11-30T04:05:01.370Z,102.47
2022-11-30T04:10:08.091Z,102.6
2022-11-30T04:15:02.104Z,102.51
2022-11-30T04:20:02.171Z,102.58
2022-11-30T04:25:02.115Z,102.49
2022-11-30T04:30:02.041Z,102.5
2022-11-30T04:35:02.121Z,102.55
2022-11-30T04:40:02.254Z,102.62
2022-11-30T04:45:02.146Z,102.51
2022-11-30T04:50:01.530Z,102.5
2022-11-30T04:55:01.777Z,102.51
2022-11-30T05:00:02.379Z,102.59
2022-11-30T05:05:02.058Z,102.54
2022-11-30T05:10:02.123Z,102.79
2022-11-30T05:15:02.106Z,102.64
2022-11-30T05:20:02.111Z,102.77
2022-11-30T05:25:02.093Z,102.75
2022-11-30T05:30:01.753Z,102.76
2022-11-30T05:35:01.973Z,102.76
2022-11-30T05:40:01.977Z,102.84
2022-11-30T05:45:02.094Z,102.91
2022-11-30T05:50:02.041Z,103.03
2022-11-30T05:55:01.958Z,102.94
2022-11-30T06:00:02.029Z,103.02
2022-11-30T06:05:02.015Z,103.1
2022-11-30T06:10:01.659Z,102.99
2022-11-30T06:15:01.995Z,102.92
2022-11-30T06:20:02.074Z,102.86
2022-11-30T06:25:02.149Z,102.94
2022-11-30T06:30:02.158Z,102.94
2022-11-30T06:35:02.187Z,102.94
2022-11-30T06:40:08.040Z,102.94
2022-11-30T06:45:01.712Z,102.95
2022-11-30T06:50:01.871Z,103.13
2022-11-30T06:55:02.186Z,102.9
2022-11-30T07:00:01.363Z,102.87
2022-11-30T07:05:01.879Z,102.84
2022-11-30T07:10:01.997Z,102.74
2022-11-30T07:15:02.333Z,102.78
2022-11-30T07:20:01.424Z,102.97
2022-11-30T07:25:01.890Z,102.91
2022-11-30T07:30:01.324Z,103
2022-11-30T07:35:01.730Z,103.13
2022-11-30T07:40:01.870Z,103.04
2022-11-30T07:45:01.959Z,103.19
2022-11-30T07:50:01.982Z,102.97
2022-11-30T07:55:01.445Z,103
2022-11-30T08:00:01.972Z,103.07
2022-11-30T08:05:01.521Z,102.99
2022-11-30T08:10:01.964Z,103.03
2022-11-30T08:15:20.997Z,102.86
2022-11-30T08:20:02.059Z,102.85
2022-11-30T08:25:02.065Z,102.74
2022-11-30T08:30:01.933Z,102.91
2022-11-30T08:35:01.938Z,102.84
2022-11-30T08:40:02.232Z,102.81
2022-11-30T08:45:01.795Z,102.72
2022-11-30T08:50:02.232Z,102.69
2022-11-30T08:55:01.947Z,102.68
2022-11-30T09:00:01.481Z,102.65
2022-11-30T09:05:02.185Z,102.54
2022-11-30T09:10:02.163Z,102.59
2022-11-30T09:15:02.451Z,102.39
2022-11-30T09:20:01.457Z,102.26
2022-11-30T09:25:01.672Z,102.19
2022-11-30T09:30:01.845Z,102.36
2022-11-30T09:35:01.930Z,102.2
2022-11-30T09:40:02.130Z,102.08
2022-11-30T09:45:02.248Z,102.07
2022-11-30T09:50:02.189Z,102.28
2022-11-30T09:55:02.111Z,102.15
2022-11-30T10:00:01.639Z,102.25
2022-11-30T10:05:01.877Z,102.1
2022-11-30T10:10:30.278Z,102.14
2022-11-30T10:15:01.814Z,102.17
2022-11-30T10:20:01.785Z,102.15
2022-11-30T10:25:03.865Z,102.01
2022-11-30T10:30:01.886Z,102.07
2022-11-30T10:35:01.317Z,102.13
2022-11-30T10:40:01.617Z,102.03
2022-11-30T10:45:01.739Z,101.94
2022-11-30T10:50:02.232Z,102.12
2022-11-30T10:55:04.932Z,101.98
2022-11-30T11:00:01.998Z,102.05
2022-11-30T11:05:01.300Z,101.94
2022-11-30T11:10:01.621Z,101.87
2022-11-30T11:15:02.059Z,101.88
2022-11-30T11:20:01.974Z,101.77
2022-11-30T11:25:01.822Z,101.81
2022-11-30T11:30:01.257Z,101.53
2022-11-30T11:35:01.871Z,101.81
2022-11-30T11:40:02.162Z,101.73
2022-11-30T11:45:02.206Z,101.72
2022-11-30T11:50:02.182Z,101.65
2022-11-30T11:55:02.034Z,101.66
2022-11-30T12:00:01.425Z,101.79
2022-11-30T12:05:01.628Z,101.63
2022-11-30T12:10:02.010Z,101.73
2022-11-30T12:15:02.558Z,101.62
2022-11-30T12:20:02.078Z,101.5
2022-11-30T12:25:05.939Z,101.54
2022-11-30T12:30:02.168Z,101.32
2022-11-30T12:35:02.090Z,101.29
2022-11-30T12:40:02.013Z,101.16
2022-11-30T12:45:01.926Z,101.5
2022-11-30T12:50:02.022Z,101.39
2022-11-30T12:55:02.144Z,101.19
2022-11-30T13:00:02.083Z,101.3
2022-11-30T13:05:02.299Z,101.28
2022-11-30T13:10:01.690Z,101.17
2022-11-30T13:15:02.059Z,101.16
2022-11-30T13:20:02.181Z,101.22
2022-11-30T13:25:02.094Z,101.21
2022-11-30T13:30:01.278Z,101.33
2022-11-30T13:35:01.628Z,101.41
2022-11-30T13:40:02.176Z,101.44
2022-11-30T13:45:01.506Z,101.72
2022-11-30T13:50:02.100Z,101.68
2022-11-30T13:55:01.278Z,101.66
2022-11-30T14:00:02.243Z,101.56
2022-11-30T14:05:01.271Z,101.71
2022-11-30T14:10:01.565Z,101.65
2022-11-30T14:15:01.321Z,101.69
2022-11-30T14:20:01.585Z,101.77
2022-11-30T14:25:02.167Z,101.62
2022-11-30T14:30:01.478Z,101.59
2022-11-30T14:35:01.899Z,101.82
2022-11-30T14:40:02.069Z,101.69
2022-11-30T14:45:01.876Z,101.82
2022-11-30T14:50:01.501Z,101.78
2022-11-30T14:55:01.650Z,101.88
2022-11-30T15:00:01.689Z,101.77
2022-11-30T15:05:01.758Z,101.88
2022-11-30T15:10:02.021Z,101.83
2022-11-30T15:15:02.080Z,101.81
2022-11-30T15:20:01.545Z,101.78
2022-11-30T15:25:01.449Z,101.81
2022-11-30T15:30:02.029Z,101.71
2022-11-30T15:35:01.470Z,101.69
2022-11-30T15:40:01.721Z,101.74
2022-11-30T15:45:01.861Z,101.79
2022-11-30T15:50:02.003Z,101.75
2022-11-30T15:55:02.158Z,101.8
2022-11-30T16:00:02.228Z,101.65
2022-11-30T16:05:01.766Z,101.75
2022-11-30T16:10:01.945Z,101.71
2022-11-30T16:15:01.993Z,101.65
2022-11-30T16:20:02.137Z,101.71
2022-11-30T16:25:02.126Z,101.8
2022-11-30T16:30:02.329Z,101.7
2022-11-30T16:35:01.335Z,101.77
2022-11-30T16:40:01.620Z,101.72
2022-11-30T16:45:02.011Z,101.78
2022-11-30T16:50:02.098Z,101.81
2022-11-30T16:55:02.035Z,101.78
2022-11-30T17:00:01.470Z,101.85
2022-11-30T17:05:01.920Z,101.83
2022-11-30T17:10:01.895Z,101.9
2022-11-30T17:15:01.932Z,101.98
2022-11-30T17:20:02.387Z,102.05
2022-11-30T17:25:02.018Z,102.15
2022-11-30T17:30:01.847Z,102.17
2022-11-30T17:35:01.869Z,102.15
2022-11-30T17:40:01.922Z,102.25
2022-11-30T17:45:02.111Z,102.23
2022-11-30T17:50:02.087Z,102.24
2022-11-30T17:55:02.146Z,102.26
2022-11-30T18:00:02.058Z,102.28
2022-11-30T18:05:02.022Z,102.33
2022-11-30T18:10:01.434Z,102.39
2022-11-30T18:15:01.954Z,102.38
2022-11-30T18:20:02.117Z,102.45
2022-11-30T18:25:01.994Z,102.35
2022-11-30T18:30:07.307Z,102.36
2022-11-30T18:35:02.197Z,102.25
2022-11-30T18:40:01.395Z,102.26
2022-11-30T18:45:01.656Z,102.31
2022-11-30T18:50:01.956Z,102.26
2022-11-30T18:55:02.076Z,102.33
2022-11-30T19:00:02.093Z,102.36
2022-11-30T19:05:02.125Z,102.39
2022-11-30T19:10:01.319Z,102.28
2022-11-30T19:15:01.546Z,102.41
2022-11-30T19:20:01.328Z,102.46
2022-11-30T19:25:02.131Z,102.39
2022-11-30T19:30:02.091Z,102.39
2022-11-30T19:35:01.248Z,102.39
2022-11-30T19:40:01.541Z,102.2
2022-11-30T19:45:02.051Z,102.49
2022-11-30T19:50:02.060Z,102.45
2022-11-30T19:55:02.121Z,102.49
2022-11-30T20:00:01.300Z,102.42
2022-11-30T20:05:09.495Z,102.37
2022-11-30T20:10:01.521Z,102.26
2022-11-30T20:15:01.707Z,102.22
2022-11-30T20:20:01.764Z,102.28
2022-11-30T20:25:01.747Z,102.26
2022-11-30T20:30:02.093Z,102.23
2022-11-30T20:35:02.207Z,102.32
2022-11-30T20:40:02.416Z,102.3
2022-11-30T20:45:01.863Z,102.22
2022-11-30T20:50:02.065Z,102.32
2022-11-30T20:55:01.545Z,102.24
2022-11-30T21:00:02.082Z,102.25
2022-11-30T21:05:01.639Z,102.36
2022-11-30T21:10:01.627Z,102.3
2022-11-30T21:15:03.157Z,102.21
2022-11-30T21:20:02.324Z,102.08
2022-11-30T21:25:01.962Z,102.03
2022-11-30T21:30:01.309Z,101.85
2022-11-30T21:35:02.396Z,101.58
2022-11-30T21:40:01.535Z,101.53
2022-11-30T21:45:02.172Z,101.52
2022-11-30T21:50:01.646Z,101.44
2022-11-30T21:55:01.379Z,101.55
2022-11-30T22:00:01.624Z,101.56
2022-11-30T22:05:01.862Z,101.44
2022-11-30T22:10:01.851Z,101.37
2022-11-30T22:15:02.290Z,101.28
2022-11-30T22:20:01.419Z,101.19
2022-11-30T22:25:01.644Z,101.3
2022-11-30T22:30:01.992Z,101.28
2022-11-30T22:35:01.289Z,101.16
2022-11-30T22:40:01.323Z,100.9
2022-11-30T22:45:01.915Z,101.01
2022-11-30T22:50:02.345Z,101.06
2022-11-30T22:55:01.957Z,100.91
2022-11-30T23:00:01.567Z,100.98
2022-11-30T23:05:02.210Z,100.98
2022-11-30T23:10:01.790Z,100.89
2022-11-30T23:15:01.993Z,100.89
2022-11-30T23:20:02.184Z,100.49
2022-11-30T23:25:01.331Z,100.73
2022-11-30T23:30:01.917Z,100.69
2022-11-30T23:35:01.681Z,100.56
2022-11-30T23:40:01.638Z,100.47
2022-11-30T23:45:01.913Z,100.37
2022-11-30T23:50:02.182Z,100.52
2022-11-30T23:55:01.255Z,100.34
